Time;durP1;ratioP1;P1;durP2;ratioP2;P2;SDS_P1;SDS_P2;PMS_P1;PMS_P2;Temp;Humidity;BMP_temperature;BMP_pressure;BME280_temperature;BME280_humidity;BME280_pressure;Samples;Min_cycle;Max_cycle;Signal;HPM_P1;HPM_P2
2022/07/15 00:01:07;;;;;;;7.67;2.07;;;;;;;22.23;42.38;100913.06;5110810;28;20301;-65
2022/07/15 00:03:35;;;;;;;7.83;2.00;;;;;;;22.19;42.35;100919.94;5109939;28;20209;-65
2022/07/15 00:06:03;;;;;;;4.57;2.07;;;;;;;22.16;42.49;100915.81;5108401;28;20210;-65
2022/07/15 00:08:31;;;;;;;4.47;1.63;;;;;;;22.11;42.46;100924.53;5110670;28;20213;-65
2022/07/15 00:10:58;;;;;;;6.50;1.90;;;;;;;22.11;42.54;100912.91;5110612;28;20209;-65
2022/07/15 00:13:27;;;;;;;9.67;2.30;;;;;;;22.12;42.66;100914.56;5109419;28;20691;-66
2022/07/15 00:15:55;;;;;;;7.83;2.00;;;;;;;22.13;42.57;100913.53;5109470;28;20293;-65
2022/07/15 00:18:23;;;;;;;6.87;2.10;;;;;;;22.17;42.54;100911.22;5109959;28;20214;-65
2022/07/15 00:20:51;;;;;;;5.27;1.60;;;;;;;22.16;42.45;100914.97;5101385;28;20249;-65
2022/07/15 00:23:18;;;;;;;5.00;1.70;;;;;;;22.14;42.29;100923.28;5112909;28;20309;-64
2022/07/15 00:25:46;;;;;;;6.97;1.77;;;;;;;22.10;42.30;100913.94;5113456;28;20208;-65
2022/07/15 00:28:14;;;;;;;6.30;1.80;;;;;;;22.09;42.62;100913.09;5113702;28;20293;-64
2022/07/15 00:30:43;;;;;;;4.23;1.70;;;;;;;21.99;42.82;100910.03;5113478;28;20542;-65
2022/07/15 00:33:11;;;;;;;5.53;2.00;;;;;;;21.96;42.94;100915.84;5113500;28;20575;-65
2022/07/15 00:35:40;;;;;;;3.57;1.70;;;;;;;21.91;42.77;100918.31;5110390;28;20222;-65
2022/07/15 00:38:09;;;;;;;4.90;1.70;;;;;;;21.90;43.12;100911.25;5108796;28;20210;-65
2022/07/15 00:40:43;;;;;;;7.47;2.20;;;;;;;21.85;43.32;100913.78;5113281;28;20202;-65
2022/07/15 00:43:11;;;;;;;3.80;1.80;;;;;;;21.81;43.08;100912.56;5109147;28;20202;-65
2022/07/15 00:45:39;;;;;;;5.07;1.93;;;;;;;21.81;42.92;100912.56;5109166;28;20643;-65
2022/07/15 00:48:08;;;;;;;6.20;2.23;;;;;;;21.78;42.98;100913.78;5113295;28;20659;-65
2022/07/15 00:50:38;;;;;;;5.50;1.83;;;;;;;21.72;43.36;100917.31;5113458;28;20205;-65
2022/07/15 00:53:11;;;;;;;4.53;1.83;;;;;;;21.71;43.37;100922.94;5112059;28;20722;-65
2022/07/15 00:55:42;;;;;;;6.30;1.83;;;;;;;21.67;43.34;100927.09;5113084;28;20313;-65
2022/07/15 00:58:17;;;;;;;9.93;2.53;;;;;;;21.64;43.85;100927.50;5112451;28;20610;-66
2022/07/15 01:00:46;;;;;;;9.60;1.73;;;;;;;21.59;43.52;100919.22;5112202;28;20694;-65
2022/07/15 01:03:17;;;;;;;6.77;1.90;;;;;;;21.53;43.92;100920.06;5112369;28;20210;-65
2022/07/15 01:05:46;;;;;;;6.10;2.50;;;;;;;21.44;43.86;100918.63;5113068;28;20206;-65
2022/07/15 01:08:14;;;;;;;5.60;2.00;;;;;;;21.40;44.24;100916.31;5111515;28;20210;-65
2022/07/15 01:10:42;;;;;;;4.27;1.73;;;;;;;21.36;44.04;100915.09;5102599;28;20210;-65
2022/07/15 01:13:09;;;;;;;4.57;2.10;;;;;;;21.32;44.30;100915.69;5111953;28;20659;-65
2022/07/15 01:15:37;;;;;;;6.80;2.03;;;;;;;21.32;44.01;100913.84;5112263;28;20226;-65
2022/07/15 01:18:05;;;;;;;5.97;2.17;;;;;;;21.35;43.81;100916.13;5108698;28;20686;-65
2022/07/15 01:20:34;;;;;;;5.30;1.90;;;;;;;21.35;44.08;100916.13;5112544;28;20801;-65
2022/07/15 01:23:03;;;;;;;5.57;1.70;;;;;;;21.34;43.77;100917.16;5111985;28;20206;-65
2022/07/15 01:25:32;;;;;;;7.10;1.80;;;;;;;21.32;43.93;100913.84;5112312;28;20202;-65
2022/07/15 01:28:00;;;;;;;4.73;1.70;;;;;;;21.28;44.09;100911.78;5112126;28;20206;-65
2022/07/15 01:30:28;;;;;;;5.13;1.67;;;;;;;21.24;44.42;100905.94;5112171;28;20241;-65
2022/07/15 01:32:56;;;;;;;5.47;1.80;;;;;;;21.21;44.22;100914.44;5111254;28;20230;-65
2022/07/15 01:35:24;;;;;;;5.27;1.93;;;;;;;21.20;44.29;100915.47;5111896;28;20592;-65
2022/07/15 01:37:51;;;;;;;3.80;1.60;;;;;;;21.17;44.30;100915.03;5112528;28;20293;-65
2022/07/15 01:40:21;;;;;;;6.53;1.93;;;;;;;21.16;44.57;100916.91;5111893;28;20252;-65
2022/07/15 01:42:48;;;;;;;5.57;1.77;;;;;;;21.14;44.64;100918.16;5109140;28;20202;-65
2022/07/15 01:45:16;;;;;;;9.47;2.30;;;;;;;21.14;44.48;100915.44;5103239;28;20206;-65
2022/07/15 01:47:44;;;;;;;7.07;1.80;;;;;;;21.09;44.74;100923.34;5092743;28;20211;-65
2022/07/15 01:50:12;;;;;;;4.87;1.73;;;;;;;21.11;44.68;100924.78;5091595;28;20766;-65
2022/07/15 01:52:39;;;;;;;5.37;2.27;;;;;;;21.05;44.71;100917.50;5094827;28;20217;-65
2022/07/15 01:55:09;;;;;;;3.87;1.90;;;;;;;21.04;44.92;100921.25;5110669;28;20222;-65
2022/07/15 01:57:38;;;;;;;4.50;1.60;;;;;;;21.01;44.89;100918.97;5098285;28;20586;-65
2022/07/15 02:00:09;;;;;;;3.97;1.50;;;;;;;20.95;44.63;100922.47;5111952;28;20688;-65
2022/07/15 02:02:37;;;;;;;6.60;1.60;;;;;;;20.95;44.72;100917.09;5111136;28;20209;-65
2022/07/15 02:05:06;;;;;;;6.70;2.23;;;;;;;20.89;44.89;100920.59;5102270;28;20207;-65
2022/07/15 02:07:34;;;;;;;13.00;2.23;;;;;;;20.90;44.75;100919.56;5111415;28;20220;-65
2022/07/15 02:10:01;;;;;;;6.10;1.93;;;;;;;20.92;44.83;100923.75;5111806;28;20209;-65
2022/07/15 02:12:29;;;;;;;6.93;1.93;;;;;;;20.95;44.49;100917.09;5110676;28;20299;-65
2022/07/15 02:14:58;;;;;;;3.70;1.40;;;;;;;21.04;44.43;100923.94;5111257;28;20236;-65
2022/07/15 02:17:26;;;;;;;5.83;1.80;;;;;;;21.10;44.42;100923.13;5111279;28;20580;-65
2022/07/15 02:19:53;;;;;;;4.20;1.73;;;;;;;21.08;44.20;100911.72;5106676;28;20210;-65
2022/07/15 02:22:21;;;;;;;6.30;2.20;;;;;;;21.02;44.61;100918.75;5099145;28;20246;-65
2022/07/15 02:24:49;;;;;;;7.73;1.50;;;;;;;21.07;44.67;100920.84;5105375;28;20673;-65
2022/07/15 02:27:17;;;;;;;5.47;1.60;;;;;;;21.03;44.68;100919.59;5101501;28;20216;-65
2022/07/15 02:29:44;;;;;;;5.87;1.93;;;;;;;20.99;44.56;100921.03;5111563;28;20846;-65
2022/07/15 02:32:14;;;;;;;3.73;1.63;;;;;;;20.96;44.77;100926.84;5110596;28;20230;-65
2022/07/15 02:34:41;;;;;;;6.73;1.60;;;;;;;20.90;44.98;100924.97;5111328;28;20259;-65
2022/07/15 02:37:09;;;;;;;4.83;1.60;;;;;;;20.88;45.09;100924.34;5111028;28;20296;-65
2022/07/15 02:39:40;;;;;;;4.63;1.70;;;;;;;20.85;44.84;100916.66;5111252;28;20209;-65
2022/07/15 02:42:07;;;;;;;5.97;1.63;;;;;;;20.81;44.96;100927.03;5110332;28;20208;-65
2022/07/15 02:44:36;;;;;;;5.40;1.90;;;;;;;20.77;45.34;100919.53;5110641;28;20240;-65
2022/07/15 02:47:04;;;;;;;6.37;2.10;;;;;;;20.78;45.24;100921.19;5111066;28;20208;-65
2022/07/15 02:49:33;;;;;;;6.73;1.73;;;;;;;20.76;45.60;100926.78;5111338;28;20296;-65
2022/07/15 02:52:01;;;;;;;3.37;1.63;;;;;;;20.73;45.72;100921.00;5111039;28;20233;-65
2022/07/15 02:54:29;;;;;;;4.90;1.90;;;;;;;20.69;45.84;100925.09;5110147;28;20242;-65
2022/07/15 02:56:56;;;;;;;5.17;1.70;;;;;;;20.62;45.84;100920.53;5105611;28;20246;-65
2022/07/15 02:59:24;;;;;;;3.57;1.73;;;;;;;20.54;45.99;100931.50;5110817;28;20206;-65
2022/07/15 03:01:52;;;;;;;5.53;2.07;;;;;;;20.50;46.29;100930.22;5110845;28;20287;-65
2022/07/15 03:04:19;;;;;;;5.60;1.57;;;;;;;20.47;46.46;100933.34;5110225;28;20238;-65
2022/07/15 03:06:49;;;;;;;7.20;2.10;;;;;;;20.44;46.46;100933.75;5110558;28;20202;-65
2022/07/15 03:09:16;;;;;;;3.83;1.63;;;;;;;20.41;46.43;100938.69;5103437;28;20245;-65
2022/07/15 03:11:44;;;;;;;5.37;1.77;;;;;;;20.38;46.07;100942.63;5107203;28;20202;-65
2022/07/15 03:14:12;;;;;;;5.40;1.80;;;;;;;20.34;46.15;100946.75;5110056;28;20288;-65
2022/07/15 03:16:47;;;;;;;4.43;1.87;;;;;;;20.35;46.59;100952.97;5100622;28;20260;-65
2022/07/15 03:19:14;;;;;;;5.90;1.80;;;;;;;20.37;46.13;100945.53;5096067;28;20211;-65
2022/07/15 03:21:42;;;;;;;5.23;1.80;;;;;;;20.40;46.37;100945.97;5110454;28;20206;-65
2022/07/15 03:24:13;;;;;;;8.77;2.27;;;;;;;20.42;46.22;100951.97;5109759;28;20701;-65
2022/07/15 03:26:41;;;;;;;3.67;1.80;;;;;;;20.40;45.96;100950.50;5111268;28;20702;-65
2022/07/15 03:29:09;;;;;;;4.97;1.80;;;;;;;20.36;46.40;100952.75;5110250;28;20298;-65
2022/07/15 03:31:37;;;;;;;6.60;2.10;;;;;;;20.40;46.15;100955.91;5110424;28;20209;-66
2022/07/15 03:34:05;;;;;;;6.30;1.90;;;;;;;20.36;45.87;100958.16;5109659;28;20214;-65
2022/07/15 03:36:33;;;;;;;8.53;2.27;;;;;;;20.31;46.13;100957.06;5109841;28;20221;-65
2022/07/15 03:39:00;;;;;;;4.53;1.80;;;;;;;20.32;46.18;100954.16;5110966;28;20267;-65
2022/07/15 03:41:30;;;;;;;5.70;1.90;;;;;;;20.30;46.56;100956.25;5110398;28;20208;-65
2022/07/15 03:43:57;;;;;;;5.90;1.90;;;;;;;20.25;46.46;100959.50;5110151;28;20206;-65
2022/07/15 03:46:25;;;;;;;6.83;2.17;;;;;;;20.31;46.40;100959.75;5110640;28;20830;-65
2022/07/15 03:48:55;;;;;;;8.30;1.97;;;;;;;20.32;46.37;100964.94;5110454;28;20226;-65
2022/07/15 03:51:24;;;;;;;3.57;1.70;;;;;;;20.32;46.59;100959.53;5108569;28;20214;-65
2022/07/15 03:53:52;;;;;;;5.33;1.70;;;;;;;20.27;47.00;100956.63;5108099;28;20206;-65
2022/07/15 03:56:20;;;;;;;8.77;1.87;;;;;;;20.19;47.07;100963.00;5101072;28;21283;-65
2022/07/15 03:58:49;;;;;;;7.63;2.60;;;;;;;20.15;47.18;100967.13;5112762;28;20202;-65
2022/07/15 04:01:17;;;;;;;5.20;1.90;;;;;;;20.12;47.46;100969.41;5113785;28;20202;-65
2022/07/15 04:03:46;;;;;;;3.87;1.87;;;;;;;20.10;47.56;100971.44;5113544;28;20202;-65
2022/07/15 04:06:13;;;;;;;4.03;2.30;;;;;;;20.08;47.55;100968.13;5114165;28;20202;-65
2022/07/15 04:08:41;;;;;;;3.53;1.90;;;;;;;20.01;47.88;100972.63;5111848;28;20217;-65
2022/07/15 04:11:09;;;;;;;7.43;2.67;;;;;;;20.02;47.63;100971.59;5114213;28;20214;-65
2022/07/15 04:13:37;;;;;;;7.63;2.03;;;;;;;19.99;47.97;100980.06;5113187;28;20206;-66
2022/07/15 04:16:09;;;;;;;7.60;2.50;;;;;;;19.99;47.58;100985.44;5114474;28;20586;-65
2022/07/15 04:18:36;;;;;;;7.83;2.33;;;;;;;19.96;48.09;100991.25;5110550;28;20264;-65
2022/07/15 04:21:04;;;;;;;10.43;2.40;;;;;;;19.99;47.61;100988.13;5113704;28;20205;-66
2022/07/15 04:23:32;;;;;;;6.63;1.80;;;;;;;19.96;47.71;100992.09;5113366;28;20209;-65
2022/07/15 04:26:00;;;;;;;9.43;1.90;;;;;;;19.99;47.96;100985.44;5113374;28;20242;-63
2022/07/15 04:28:28;;;;;;;8.00;2.10;;;;;;;20.02;47.86;100995.84;5113915;28;20297;-65
2022/07/15 04:30:55;;;;;;;4.53;2.07;;;;;;;19.98;48.03;100989.16;5113609;28;20216;-66
2022/07/15 04:33:25;;;;;;;8.07;1.63;;;;;;;20.00;47.82;100998.72;5113084;28;20313;-66
2022/07/15 04:35:54;;;;;;;7.33;2.33;;;;;;;20.02;48.17;100995.84;5113396;28;20206;-66
2022/07/15 04:38:22;;;;;;;6.67;2.00;;;;;;;19.98;48.04;100997.25;5113937;28;20210;-66
2022/07/15 04:40:50;;;;;;;4.07;2.00;;;;;;;19.99;48.25;100998.91;5113358;28;20206;-66
2022/07/15 04:43:17;;;;;;;5.43;2.13;;;;;;;20.01;48.17;101004.94;5112449;28;20288;-66
2022/07/15 04:45:45;;;;;;;7.97;2.20;;;;;;;20.08;47.86;101000.41;5111408;28;20224;-64
2022/07/15 04:51:00;;;;;;;5.30;2.20;;;;;;;20.08;48.28;101003.94;5113481;28;20328;-64
2022/07/15 04:53:28;;;;;;;6.93;2.00;;;;;;;20.10;48.25;100993.81;5112181;28;20289;-64
2022/07/15 04:55:55;;;;;;;8.80;2.47;;;;;;;20.13;47.94;101001.50;5108141;28;20202;-64
2022/07/15 04:58:23;;;;;;;3.90;1.83;;;;;;;20.14;47.93;100995.06;5113552;28;20209;-64
2022/07/15 05:00:51;;;;;;;7.90;2.83;;;;;;;20.10;48.20;101003.75;5113267;28;20228;-64
2022/07/15 05:03:19;;;;;;;4.87;2.10;;;;;;;20.13;47.89;101001.50;5112557;28;20210;-64
2022/07/15 05:05:47;;;;;;;5.20;2.03;;;;;;;20.13;48.02;101008.75;5112615;28;20710;-64
2022/07/15 05:08:16;;;;;;;7.27;1.93;;;;;;;20.14;48.22;101013.13;5109607;28;20325;-64
2022/07/15 05:10:44;;;;;;;6.87;2.43;;;;;;;20.09;48.42;101012.84;5112188;28;20214;-64
2022/07/15 05:13:12;;;;;;;5.43;1.97;;;;;;;20.08;48.55;101012.03;5112218;28;20235;-65
2022/07/15 05:15:40;;;;;;;6.80;2.03;;;;;;;20.05;48.72;101020.50;5112401;28;20288;-64
2022/07/15 05:18:07;;;;;;;8.33;2.30;;;;;;;20.13;48.90;101016.84;5112680;28;20226;-64
2022/07/15 05:20:35;;;;;;;4.83;2.07;;;;;;;20.19;48.44;101016.88;5110765;28;20755;-64
2022/07/15 05:23:03;;;;;;;8.80;2.53;;;;;;;20.27;48.63;101018.56;5111991;28;20210;-64
2022/07/15 05:25:33;;;;;;;6.83;2.20;;;;;;;20.33;48.48;101020.47;5112492;28;20295;-65
2022/07/15 05:28:01;;;;;;;6.33;1.83;;;;;;;20.34;48.06;101024.84;5112345;28;20281;-65
2022/07/15 05:30:29;;;;;;;6.67;2.03;;;;;;;20.35;48.37;101023.00;5112101;28;20281;-65
2022/07/15 05:32:57;;;;;;;5.67;2.30;;;;;;;20.39;48.50;101026.97;5111195;28;20708;-65
2022/07/15 05:35:25;;;;;;;3.87;1.73;;;;;;;20.46;48.41;101031.34;5112614;28;20718;-65
2022/07/15 05:37:53;;;;;;;4.80;1.83;;;;;;;20.47;48.21;101022.25;5112351;28;20694;-65
2022/07/15 05:40:21;;;;;;;8.60;2.13;;;;;;;20.52;48.21;101025.16;5112101;28;20245;-65
2022/07/15 05:42:50;;;;;;;6.00;2.00;;;;;;;20.53;47.93;101031.38;5109180;28;20294;-65
2022/07/15 05:45:19;;;;;;;7.13;3.40;;;;;;;20.55;47.95;101030.16;5111793;28;20313;-64
2022/07/15 05:47:50;;;;;;;6.77;2.73;;;;;;;20.62;48.19;101032.88;5112067;28;20297;-65
2022/07/15 05:50:18;;;;;;;6.53;2.17;;;;;;;20.73;48.12;101040.41;5111275;28;20194;-64
2022/07/15 05:52:46;;;;;;;9.30;3.30;;;;;;;20.81;47.87;101034.84;5111567;28;20233;-65
2022/07/15 05:55:14;;;;;;;5.50;2.20;;;;;;;20.85;47.41;101043.31;5110847;28;20198;-65
2022/07/15 05:57:42;;;;;;;8.13;2.10;;;;;;;20.92;47.40;101038.81;5098586;28;20329;-64
2022/07/15 06:00:15;;;;;;;5.77;2.20;;;;;;;21.00;47.41;101033.25;5111815;28;20210;-65
2022/07/15 06:02:43;;;;;;;7.87;2.00;;;;;;;21.06;47.34;101032.41;5097462;28;20297;-65
2022/07/15 06:05:11;;;;;;;4.73;2.23;;;;;;;21.10;46.77;101044.47;5112161;28;20672;-65
2022/07/15 06:07:39;;;;;;;5.30;2.40;;;;;;;21.12;46.99;101037.00;5097472;28;20205;-65
2022/07/15 06:10:08;;;;;;;11.00;2.13;;;;;;;21.17;46.63;101049.88;5111450;28;20301;-65
2022/07/15 06:12:37;;;;;;;3.83;2.03;;;;;;;21.22;46.52;101053.66;5110502;28;20271;-65
2022/07/15 06:15:05;;;;;;;7.07;1.70;;;;;;;21.29;46.68;101053.66;5111242;28;20281;-65
2022/07/15 06:17:34;;;;;;;3.73;1.30;;;;;;;21.32;45.94;101048.72;5111644;28;20234;-65
2022/07/15 06:20:02;;;;;;;4.57;2.00;;;;;;;21.35;46.14;101053.69;5108052;28;20213;-64
2022/07/15 06:22:38;;;;;;;9.80;2.73;;;;;;;21.40;45.89;101058.47;5110283;28;20229;-66
2022/07/15 06:25:06;;;;;;;6.93;2.20;;;;;;;21.47;45.53;101059.31;5102890;28;20202;-65
2022/07/15 06:27:34;;;;;;;5.80;1.37;;;;;;;21.56;45.43;101051.84;5110952;28;20256;-64
2022/07/15 06:30:02;;;;;;;5.93;1.77;;;;;;;21.61;45.75;101054.78;5111007;28;20202;-64
2022/07/15 06:32:29;;;;;;;11.77;1.83;;;;;;;21.65;45.69;101050.59;5110531;28;20233;-65
2022/07/15 06:34:58;;;;;;;11.43;1.40;;;;;;;21.69;45.72;101057.28;5111144;28;20206;-66
2022/07/15 06:37:27;;;;;;;7.57;2.00;;;;;;;21.70;45.66;101057.06;5110903;28;20691;-65
2022/07/15 06:39:55;;;;;;;6.93;2.10;;;;;;;21.76;45.43;101058.09;5108609;28;20337;-65
2022/07/15 06:42:23;;;;;;;5.30;1.60;;;;;;;21.77;45.12;101057.06;5110421;28;20210;-66
2022/07/15 06:44:52;;;;;;;9.40;1.60;;;;;;;21.85;45.34;101056.84;5110134;28;20236;-65
2022/07/15 06:47:20;;;;;;;4.43;1.80;;;;;;;21.91;44.93;101058.72;5103977;28;20533;-65
2022/07/15 06:49:49;;;;;;;6.20;1.97;;;;;;;21.96;44.96;101055.41;5110462;28;20212;-65
2022/07/15 06:52:18;;;;;;;9.17;2.13;;;;;;;22.02;44.95;101055.44;5101060;28;20249;-65
2022/07/15 06:54:47;;;;;;;6.57;1.53;;;;;;;22.07;44.61;101061.06;5105165;28;20835;-65
2022/07/15 06:57:16;;;;;;;6.03;1.30;;;;;;;22.10;44.57;101057.06;5107790;28;20675;-65
2022/07/15 06:59:47;;;;;;;5.57;1.57;;;;;;;22.13;44.18;101056.66;5110442;28;20217;-65
2022/07/15 07:02:15;;;;;;;7.30;1.73;;;;;;;22.17;44.54;101057.06;5109742;28;20510;-65
2022/07/15 07:04:43;;;;;;;5.43;1.67;;;;;;;22.19;44.05;101065.78;5110129;28;20209;-65
2022/07/15 07:07:10;;;;;;;6.37;1.50;;;;;;;22.23;44.21;101062.47;5111169;28;20736;-65
2022/07/15 07:09:40;;;;;;;7.87;1.37;;;;;;;22.25;44.71;101064.97;5110769;28;20650;-65
2022/07/15 07:12:07;;;;;;;10.03;1.80;;;;;;;22.31;44.52;101061.44;5108842;28;20240;-65
2022/07/15 07:14:35;;;;;;;9.87;2.33;;;;;;;22.38;43.88;101067.63;5106121;28;20237;-65
2022/07/15 07:17:03;;;;;;;4.93;1.60;;;;;;;22.40;44.08;101062.88;5109828;28;20418;-65
2022/07/15 07:19:31;;;;;;;4.60;1.70;;;;;;;22.41;44.18;101061.81;5108519;28;20320;-65
2022/07/15 07:21:58;;;;;;;4.40;1.47;;;;;;;22.43;43.92;101057.84;5110706;28;20206;-65
2022/07/15 07:24:26;;;;;;;7.03;2.20;;;;;;;22.44;44.54;101053.28;5109694;28;20301;-64
2022/07/15 07:26:55;;;;;;;6.80;1.83;;;;;;;22.45;44.27;101054.94;5110828;28;20289;-65
2022/07/15 07:29:23;;;;;;;4.00;1.47;;;;;;;22.51;44.33;101059.53;5109898;28;20210;-65
2022/07/15 07:31:52;;;;;;;7.40;1.57;;;;;;;22.58;44.09;101054.91;5113452;28;20226;-65
2022/07/15 07:34:20;;;;;;;13.37;1.70;;;;;;;22.59;44.17;101047.63;5112976;28;20240;-65
2022/07/15 07:36:48;;;;;;;6.30;1.53;;;;;;;22.65;44.16;101057.59;5113725;28;20230;-65
2022/07/15 07:39:16;;;;;;;5.07;1.77;;;;;;;22.63;44.12;101056.97;5114718;28;20750;-65
2022/07/15 07:41:44;;;;;;;13.03;1.90;;;;;;;22.63;44.33;101057.81;5114441;28;20202;-66
2022/07/15 07:44:13;;;;;;;3.83;1.43;;;;;;;22.69;44.40;101058.84;5113519;28;20205;-65
2022/07/15 07:46:41;;;;;;;9.43;1.73;;;;;;;22.71;44.21;101060.28;5113821;28;20292;-66
2022/07/15 07:49:08;;;;;;;9.90;1.73;;;;;;;22.79;44.34;101056.53;5114642;28;20202;-66
2022/07/15 07:51:57;;;;;;;4.27;1.33;;;;;;;22.82;43.66;101062.34;5114044;28;20212;-66
2022/07/15 07:54:24;;;;;;;11.53;1.50;;;;;;;22.77;44.11;101066.75;5113957;28;20228;-66
2022/07/15 07:56:52;;;;;;;8.17;1.47;;;;;;;22.75;43.92;101072.38;5099346;28;20231;-68
2022/07/15 07:59:21;;;;;;;6.67;1.27;;;;;;;22.70;44.02;101063.19;5114117;28;20279;-65
2022/07/15 08:01:49;;;;;;;3.93;1.33;;;;;;;22.72;44.06;101063.81;5114381;28;20212;-65
2022/07/15 08:04:17;;;;;;;7.73;2.07;;;;;;;22.78;44.00;101061.09;5113543;28;20719;-65
2022/07/15 08:06:45;;;;;;;4.70;1.87;;;;;;;22.84;44.15;101060.25;5113826;28;20206;-65
2022/07/15 08:09:12;;;;;;;6.07;2.30;;;;;;;22.96;44.15;101062.28;5113429;28;20324;-65
2022/07/15 08:11:40;;;;;;;11.93;1.67;;;;;;;23.07;43.45;101067.84;5113382;28;20206;-65
2022/07/15 08:14:08;;;;;;;3.70;1.50;;;;;;;23.21;43.45;101060.50;5113322;28;20288;-65
2022/07/15 08:16:42;;;;;;;7.27;2.00;;;;;;;23.36;43.05;101062.91;5113619;28;20213;-65
2022/07/15 08:19:13;;;;;;;4.03;1.77;;;;;;;23.43;43.31;101059.13;5112047;28;20222;-65
2022/07/15 08:21:42;;;;;;;9.48;1.48;;;;;;;23.55;42.92;101067.41;5108062;28;20210;-64
2022/07/15 08:24:10;;;;;;;8.75;1.80;;;;;;;23.70;42.33;101070.63;5108268;28;20205;-65
2022/07/15 08:26:38;;;;;;;4.90;1.30;;;;;;;23.80;42.02;101065.53;5114005;28;20240;-66
2022/07/15 08:29:06;;;;;;;6.97;1.58;;;;;;;23.90;41.44;101075.88;5113557;28;20244;-64
2022/07/15 08:31:34;;;;;;;8.30;1.75;;;;;;;23.95;41.21;101067.91;5113235;28;20206;-66
2022/07/15 08:34:07;;;;;;;6.20;1.58;;;;;;;24.06;41.06;101069.91;5112453;28;20408;-66
2022/07/15 08:36:37;;;;;;;4.95;1.27;;;;;;;24.11;40.87;101056.50;5113074;28;20627;-65
2022/07/15 08:39:05;;;;;;;2.60;1.15;;;;;;;24.19;40.59;101069.78;5113297;28;20320;-65
2022/07/15 08:41:36;;;;;;;4.28;1.45;;;;;;;24.27;40.52;101071.41;5112842;28;20198;-65
2022/07/15 08:44:04;;;;;;;6.10;1.85;;;;;;;24.30;40.43;101060.94;5112347;28;20288;-65
2022/07/15 08:46:34;;;;;;;6.30;1.50;;;;;;;24.35;40.12;101061.13;5113267;28;20300;-65
2022/07/15 08:49:08;;;;;;;7.78;1.70;;;;;;;24.46;40.33;101069.53;5112851;28;20259;-65
2022/07/15 08:51:38;;;;;;;6.22;1.55;;;;;;;24.58;40.76;101065.88;5112948;28;20302;-64
2022/07/15 08:54:06;;;;;;;6.72;1.40;;;;;;;24.67;40.38;101060.97;5112576;28;20241;-65
2022/07/15 08:56:35;;;;;;;4.13;1.27;;;;;;;24.73;40.27;101069.00;5100171;28;20283;-65
2022/07/15 08:59:05;;;;;;;4.20;1.27;;;;;;;24.77;39.62;101055.00;5111207;28;20240;-65
2022/07/15 09:01:35;;;;;;;5.50;1.55;;;;;;;24.82;39.93;101063.28;5113076;28;20631;-65
2022/07/15 09:04:04;;;;;;;8.90;1.67;;;;;;;24.87;39.25;101061.56;5112588;28;20225;-65
2022/07/15 09:06:34;;;;;;;3.80;1.30;;;;;;;24.95;39.33;101069.44;5112724;28;20213;-65
2022/07/15 09:09:24;;;;;;;7.15;1.42;;;;;;;25.01;38.98;101067.66;5113086;28;20288;-65
2022/07/15 09:12:00;;;;;;;7.13;1.73;;;;;;;25.09;39.43;101070.06;5112614;28;20301;-66
2022/07/15 09:14:41;;;;;;;8.82;3.03;;;;;;;25.15;39.26;101058.31;5096973;28;20210;-65
2022/07/15 09:17:24;;;;;;;5.78;1.40;;;;;;;25.24;38.38;101067.78;5105766;28;20698;-65
2022/07/15 09:20:09;;;;;;;8.30;2.45;;;;;;;25.16;38.91;101073.50;5101876;28;20808;-66
2022/07/15 09:22:50;;;;;;;5.10;1.45;;;;;;;25.00;38.52;101072.25;5111817;28;20206;-65
2022/07/15 09:25:19;;;;;;;5.80;1.85;;;;;;;24.80;38.63;101071.69;5112638;28;20236;-66
2022/07/15 09:27:47;;;;;;;5.55;1.33;;;;;;;24.56;39.18;101075.28;5110336;28;20312;-65
2022/07/15 09:36:16;;;;;;;4.72;1.70;;;;;;;24.42;40.23;101068.34;5112172;28;20198;-66
2022/07/15 09:38:47;;;;;;;3.90;2.03;;;;;;;24.46;39.89;101070.38;5109514;28;20221;-64
2022/07/15 09:41:28;;;;;;;3.35;1.58;;;;;;;24.55;39.00;101071.72;5112702;28;20202;-65
2022/07/15 09:43:59;;;;;;;6.55;1.63;;;;;;;24.69;39.19;101075.13;5111545;28;20681;-65
2022/07/15 09:46:29;;;;;;;3.15;1.48;;;;;;;24.88;39.78;101065.94;5111798;28;20240;-65
2022/07/15 09:48:57;;;;;;;4.78;1.88;;;;;;;25.04;39.52;101068.06;5112140;28;20695;-66
2022/07/15 09:51:26;;;;;;;11.75;1.88;;;;;;;25.03;39.30;101060.97;5111761;28;20218;-65
2022/07/15 09:53:54;;;;;;;7.93;2.00;;;;;;;24.97;39.47;101070.03;5111623;28;20293;-65
2022/07/15 09:56:29;;;;;;;8.50;1.67;;;;;;;24.90;38.98;101063.81;5100963;28;20316;-66
2022/07/15 09:58:57;;;;;;;8.60;2.08;;;;;;;24.73;39.08;101079.03;5109193;28;20296;-64
2022/07/15 10:01:27;;;;;;;4.68;1.83;;;;;;;24.56;39.80;101072.56;5111364;28;20655;-65
2022/07/15 10:03:57;;;;;;;5.82;1.95;;;;;;;24.54;39.80;101074.69;5111204;28;20244;-64
2022/07/15 10:06:28;;;;;;;4.88;1.95;;;;;;;24.55;39.01;101068.19;5107896;28;20210;-64
2022/07/15 10:08:57;;;;;;;4.35;1.45;;;;;;;24.44;39.58;101067.06;5110847;28;20301;-64
2022/07/15 10:11:25;;;;;;;7.50;1.80;;;;;;;24.50;39.58;101073.47;5111338;28;20259;-64
2022/07/15 10:14:32;;;;;;;6.70;1.90;;;;;;;24.64;39.42;101061.41;5109616;28;20224;-65
2022/07/15 10:17:35;;;;;;;7.68;2.15;;;;;;;24.77;39.56;101058.56;5069945;28;20304;-64
2022/07/15 10:20:18;;;;;;;5.63;2.05;;;;;;;24.91;39.72;101057.34;5109328;28;20259;-64
2022/07/15 10:22:57;;;;;;;6.50;2.42;;;;;;;25.03;38.97;101054.72;5110339;28;20586;-65
2022/07/15 10:25:39;;;;;;;4.50;1.95;;;;;;;25.20;38.26;101050.31;5108680;28;20309;-65
2022/07/15 10:28:11;;;;;;;9.38;2.05;;;;;;;25.43;37.61;101044.09;5110110;28;20304;-65
2022/07/15 10:30:39;;;;;;;4.72;1.80;;;;;;;25.60;38.01;101053.28;5110935;28;20213;-65
2022/07/15 10:33:14;;;;;;;5.28;1.83;;;;;;;25.80;37.92;101047.53;5110026;28;20757;-66
2022/07/15 10:35:48;;;;;;;5.13;1.75;;;;;;;25.94;38.05;101038.09;5110629;28;20244;-65
2022/07/15 10:38:29;;;;;;;4.70;1.60;;;;;;;26.13;37.95;101038.78;5110997;28;20217;-65
2022/07/15 10:40:58;;;;;;;8.38;2.85;;;;;;;26.16;37.82;101038.31;5111066;28;20224;-65
2022/07/15 10:43:42;;;;;;;6.53;2.08;;;;;;;26.13;37.24;101033.34;5109557;28;20313;-65
2022/07/15 10:46:20;;;;;;;7.07;2.35;;;;;;;25.93;37.59;101041.06;5110498;28;20291;-65
2022/07/15 10:48:49;;;;;;;10.98;2.17;;;;;;;25.80;37.99;101036.66;5105342;28;20539;-65
2022/07/15 10:51:45;;;;;;;4.85;1.67;;;;;;;25.94;38.05;101031.84;5110073;28;20210;-65
2022/07/15 10:54:42;;;;;;;11.40;2.25;;;;;;;26.14;38.05;101035.00;5100785;28;20210;-66
2022/07/15 10:57:13;;;;;;;9.57;2.33;;;;;;;26.29;37.00;101021.81;5096170;28;20234;-65
2022/07/15 10:59:49;;;;;;;5.25;2.30;;;;;;;26.16;36.63;101022.84;5099607;28;20226;-64
2022/07/15 11:02:20;;;;;;;6.00;1.98;;;;;;;26.00;36.80;101022.75;5109703;28;20731;-65
2022/07/15 11:04:49;;;;;;;10.88;1.90;;;;;;;25.87;36.91;101021.06;5110228;28;20294;-65
2022/07/15 11:07:31;;;;;;;6.47;2.00;;;;;;;25.79;37.17;101027.69;5110515;28;20258;-65
2022/07/15 11:10:16;;;;;;;11.00;1.83;;;;;;;25.64;37.43;101023.78;5110332;28;20293;-65
2022/07/15 11:13:00;;;;;;;10.95;2.83;;;;;;;25.48;37.34;101031.50;5109081;28;20232;-64
2022/07/15 11:15:28;;;;;;;6.05;1.92;;;;;;;25.30;37.48;101011.75;5110265;28;20206;-65
2022/07/15 11:17:57;;;;;;;6.25;2.35;;;;;;;25.22;38.29;101014.78;5102898;28;20225;-65
2022/07/15 11:20:38;;;;;;;5.38;2.20;;;;;;;25.18;38.36;101016.28;5106363;28;20221;-64
2022/07/15 11:23:07;;;;;;;10.65;2.60;;;;;;;25.13;38.82;101018.88;5101557;28;20214;-65
2022/07/15 11:25:39;;;;;;;5.43;2.75;;;;;;;25.08;39.07;101009.53;5110042;28;20289;-65
2022/07/15 11:28:10;;;;;;;6.70;2.35;;;;;;;25.03;38.19;101012.13;5108562;28;20216;-67
2022/07/15 11:30:40;;;;;;;7.88;2.70;;;;;;;24.95;38.27;101019.75;5110312;28;20289;-66
2022/07/15 11:33:11;;;;;;;16.00;3.38;;;;;;;24.83;38.34;101016.94;5109654;28;20616;-65
2022/07/15 11:35:47;;;;;;;6.90;2.97;;;;;;;24.74;38.23;101021.03;5110639;28;20209;-66
2022/07/15 11:38:17;;;;;;;5.70;2.20;;;;;;;24.64;38.46;101013.44;5110786;28;20568;-65
2022/07/15 11:46:21;;;;;;;7.63;3.38;;;;;;;24.53;38.93;101016.94;5110472;28;20202;-66
2022/07/15 11:48:51;;;;;;;5.18;2.53;;;;;;;24.50;38.64;101014.66;5109830;28;20198;-66
2022/07/15 11:51:26;;;;;;;8.27;2.75;;;;;;;24.52;38.60;101014.44;5110079;28;20203;-65